sensor_id;sensor_type;location;lat;lon;timestamp;pressure;altitude;pressure_sealevel;temperature;humidity
12471;BME280;36499;46.484;13.832;2023-02-20T00:00:10;93874.97;;;2.11;78.78
12471;BME280;36499;46.484;13.832;2023-02-20T00:02:42;93868.72;;;2.14;77.98
12471;BME280;36499;46.484;13.832;2023-02-20T00:05:11;93884.44;;;2.11;77.83
12471;BME280;36499;46.484;13.832;2023-02-20T00:07:41;93886.91;;;2.03;76.91
12471;BME280;36499;46.484;13.832;2023-02-20T00:10:09;93886.16;;;1.92;76.94
12471;BME280;36499;46.484;13.832;2023-02-20T00:12:37;93886.56;;;1.88;78.45
12471;BME280;36499;46.484;13.832;2023-02-20T00:15:05;93886.56;;;1.98;78.26
12471;BME280;36499;46.484;13.832;2023-02-20T00:17:32;93899.63;;;2.04;78.45
12471;BME280;36499;46.484;13.832;2023-02-20T00:20:00;93903.72;;;1.97;78.81
12471;BME280;36499;46.484;13.832;2023-02-20T00:22:27;93898.59;;;1.97;79.34
12471;BME280;36499;46.484;13.832;2023-02-20T00:24:55;93903.16;;;2.03;78.60
12471;BME280;36499;46.484;13.832;2023-02-20T00:27:22;93907.78;;;2.00;78.81
12471;BME280;36499;46.484;13.832;2023-02-20T00:29:49;93908.47;;;2.02;78.61
12471;BME280;36499;46.484;13.832;2023-02-20T00:32:16;93913.91;;;1.79;76.06
12471;BME280;36499;46.484;13.832;2023-02-20T00:34:43;93910.00;;;1.75;76.99
12471;BME280;36499;46.484;13.832;2023-02-20T00:37:10;93921.09;;;1.76;77.25
12471;BME280;36499;46.484;13.832;2023-02-20T00:39:37;93924.38;;;1.68;77.37
12471;BME280;36499;46.484;13.832;2023-02-20T00:42:06;93914.13;;;1.59;79.44
12471;BME280;36499;46.484;13.832;2023-02-20T00:44:33;93917.63;;;1.67;79.41
12471;BME280;36499;46.484;13.832;2023-02-20T00:47:00;93924.75;;;1.73;78.85
12471;BME280;36499;46.484;13.832;2023-02-20T00:49:27;93918.69;;;1.74;79.03
12471;BME280;36499;46.484;13.832;2023-02-20T00:51:54;93927.75;;;1.78;78.46
12471;BME280;36499;46.484;13.832;2023-02-20T00:54:21;93934.88;;;1.84;78.65
12471;BME280;36499;46.484;13.832;2023-02-20T00:56:48;93935.53;;;1.86;78.10
12471;BME280;36499;46.484;13.832;2023-02-20T00:59:17;93945.72;;;1.78;77.44
12471;BME280;36499;46.484;13.832;2023-02-20T01:01:44;93947.63;;;1.76;78.75
12471;BME280;36499;46.484;13.832;2023-02-20T01:04:11;93946.94;;;1.74;79.04
12471;BME280;36499;46.484;13.832;2023-02-20T01:06:38;93945.44;;;1.72;78.97
12471;BME280;36499;46.484;13.832;2023-02-20T01:09:05;93942.22;;;1.60;78.32
12471;BME280;36499;46.484;13.832;2023-02-20T01:11:32;93937.38;;;1.57;79.51
12471;BME280;36499;46.484;13.832;2023-02-20T01:13:59;93928.31;;;1.53;80.07
12471;BME280;36499;46.484;13.832;2023-02-20T01:16:27;93925.63;;;1.55;80.30
12471;BME280;36499;46.484;13.832;2023-02-20T01:18:54;93930.88;;;1.63;79.63
12471;BME280;36499;46.484;13.832;2023-02-20T01:21:22;93932.75;;;1.70;79.34
12471;BME280;36499;46.484;13.832;2023-02-20T01:23:49;93931.81;;;1.62;79.72
12471;BME280;36499;46.484;13.832;2023-02-20T01:26:16;93934.25;;;1.54;79.81
12471;BME280;36499;46.484;13.832;2023-02-20T01:28:44;93936.19;;;1.52;79.62
12471;BME280;36499;46.484;13.832;2023-02-20T01:31:11;93935.88;;;1.45;79.73
12471;BME280;36499;46.484;13.832;2023-02-20T01:33:41;93936.31;;;1.40;80.16
12471;BME280;36499;46.484;13.832;2023-02-20T01:36:09;93930.22;;;1.41;80.62
12471;BME280;36499;46.484;13.832;2023-02-20T01:38:39;93941.72;;;1.47;80.51
12471;BME280;36499;46.484;13.832;2023-02-20T01:41:07;93938.22;;;1.48;81.31
12471;BME280;36499;46.484;13.832;2023-02-20T01:43:34;93937.94;;;1.51;81.61
12471;BME280;36499;46.484;13.832;2023-02-20T01:49:40;93939.56;;;1.52;81.41
12471;BME280;36499;46.484;13.832;2023-02-20T01:52:14;93939.66;;;1.60;80.78
12471;BME280;36499;46.484;13.832;2023-02-20T01:54:49;93944.41;;;1.55;81.14
12471;BME280;36499;46.484;13.832;2023-02-20T01:57:21;93939.97;;;1.48;81.17
12471;BME280;36499;46.484;13.832;2023-02-20T01:59:54;93955.63;;;1.54;81.42
12471;BME280;36499;46.484;13.832;2023-02-20T02:02:24;93955.50;;;1.46;81.53
12471;BME280;36499;46.484;13.832;2023-02-20T02:04:53;93946.84;;;1.47;81.61
12471;BME280;36499;46.484;13.832;2023-02-20T02:07:21;93954.69;;;1.45;80.80
12471;BME280;36499;46.484;13.832;2023-02-20T02:09:53;93956.72;;;1.52;80.58
12471;BME280;36499;46.484;13.832;2023-02-20T02:12:22;93959.84;;;1.55;81.35
12471;BME280;36499;46.484;13.832;2023-02-20T02:14:50;93957.25;;;1.55;80.69
12471;BME280;36499;46.484;13.832;2023-02-20T02:17:37;93959.41;;;1.50;81.79
12471;BME280;36499;46.484;13.832;2023-02-20T02:21:10;93951.19;;;1.37;82.04
12471;BME280;36499;46.484;13.832;2023-02-20T02:27:37;93949.69;;;1.44;80.71
12471;BME280;36499;46.484;13.832;2023-02-20T02:31:00;93949.69;;;1.54;80.77
12471;BME280;36499;46.484;13.832;2023-02-20T02:34:25;93945.47;;;1.62;79.73
12471;BME280;36499;46.484;13.832;2023-02-20T02:37:14;93943.06;;;1.51;80.65
12471;BME280;36499;46.484;13.832;2023-02-20T02:39:55;93936.56;;;1.47;81.08
12471;BME280;36499;46.484;13.832;2023-02-20T02:42:35;93937.25;;;1.49;81.19
12471;BME280;36499;46.484;13.832;2023-02-20T02:45:16;93945.50;;;1.43;81.25
12471;BME280;36499;46.484;13.832;2023-02-20T02:47:52;93940.78;;;1.48;81.18
12471;BME280;36499;46.484;13.832;2023-02-20T02:50:26;93937.94;;;1.51;81.31
12471;BME280;36499;46.484;13.832;2023-02-20T02:52:58;93950.50;;;1.54;82.00
12471;BME280;36499;46.484;13.832;2023-02-20T02:55:27;93936.31;;;1.60;81.32
12471;BME280;36499;46.484;13.832;2023-02-20T02:57:54;93942.38;;;1.59;81.86
12471;BME280;36499;46.484;13.832;2023-02-20T03:00:27;93947.41;;;1.51;82.67
12471;BME280;36499;46.484;13.832;2023-02-20T03:03:01;93947.09;;;1.54;82.23
12471;BME280;36499;46.484;13.832;2023-02-20T03:05:37;93942.50;;;1.57;83.09
12471;BME280;36499;46.484;13.832;2023-02-20T03:08:22;93934.91;;;1.65;82.80
12471;BME280;36499;46.484;13.832;2023-02-20T03:11:00;93944.63;;;1.81;81.76
12471;BME280;36499;46.484;13.832;2023-02-20T03:13:36;93939.38;;;2.19;80.21
12471;BME280;36499;46.484;13.832;2023-02-20T03:16:28;93933.47;;;2.09;79.87
12471;BME280;36499;46.484;13.832;2023-02-20T03:19:01;93940.31;;;1.81;80.76
12471;BME280;36499;46.484;13.832;2023-02-20T03:21:31;93936.81;;;1.73;81.26
12471;BME280;36499;46.484;13.832;2023-02-20T03:24:03;93937.09;;;1.70;81.04
12471;BME280;36499;46.484;13.832;2023-02-20T03:26:34;93943.97;;;1.69;80.89
12471;BME280;36499;46.484;13.832;2023-02-20T03:29:11;93945.06;;;1.67;81.43
12471;BME280;36499;46.484;13.832;2023-02-20T03:31:43;93941.94;;;1.73;80.84
12471;BME280;36499;46.484;13.832;2023-02-20T03:34:18;93962.78;;;1.60;81.38
12471;BME280;36499;46.484;13.832;2023-02-20T03:37:09;93952.50;;;1.60;81.31
12471;BME280;36499;46.484;13.832;2023-02-20T03:40:02;93951.84;;;1.58;81.28
12471;BME280;36499;46.484;13.832;2023-02-20T03:42:53;93952.78;;;1.57;81.13
12471;BME280;36499;46.484;13.832;2023-02-20T03:45:42;93957.94;;;1.48;80.80
12471;BME280;36499;46.484;13.832;2023-02-20T03:48:16;93961.84;;;1.42;81.35
12471;BME280;36499;46.484;13.832;2023-02-20T03:50:45;93963.06;;;1.19;82.98
12471;BME280;36499;46.484;13.832;2023-02-20T03:53:13;93957.00;;;1.39;82.43
12471;BME280;36499;46.484;13.832;2023-02-20T03:55:42;93960.25;;;1.51;81.68
12471;BME280;36499;46.484;13.832;2023-02-20T03:58:13;93962.00;;;1.31;82.09
12471;BME280;36499;46.484;13.832;2023-02-20T04:00:46;93968.75;;;1.32;82.10
12471;BME280;36499;46.484;13.832;2023-02-20T04:03:20;93967.41;;;1.37;81.69
12471;BME280;36499;46.484;13.832;2023-02-20T04:05:53;93972.00;;;1.34;81.46
12471;BME280;36499;46.484;13.832;2023-02-20T04:08:26;93968.88;;;1.30;81.86
12471;BME280;36499;46.484;13.832;2023-02-20T04:11:02;93974.19;;;1.29;81.69
12471;BME280;36499;46.484;13.832;2023-02-20T04:13:32;93967.41;;;1.28;81.31
12471;BME280;36499;46.484;13.832;2023-02-20T04:16:01;93967.94;;;1.31;81.86
12471;BME280;36499;46.484;13.832;2023-02-20T04:18:29;93972.81;;;1.25;81.28
12471;BME280;36499;46.484;13.832;2023-02-20T04:21:02;93969.97;;;1.18;81.94
12471;BME280;36499;46.484;13.832;2023-02-20T04:23:36;93967.28;;;1.20;82.06
12471;BME280;36499;46.484;13.832;2023-02-20T04:26:11;93966.72;;;1.26;81.67
12471;BME280;36499;46.484;13.832;2023-02-20T04:28:40;93964.44;;;1.23;82.42
12471;BME280;36499;46.484;13.832;2023-02-20T04:31:08;93956.75;;;1.32;82.30
12471;BME280;36499;46.484;13.832;2023-02-20T04:33:36;93959.44;;;1.40;82.82
12471;BME280;36499;46.484;13.832;2023-02-20T04:36:04;93958.75;;;1.48;82.10
12471;BME280;36499;46.484;13.832;2023-02-20T04:38:32;93962.53;;;1.54;82.08
12471;BME280;36499;46.484;13.832;2023-02-20T04:40:59;93964.97;;;1.55;82.12
12471;BME280;36499;46.484;13.832;2023-02-20T04:43:27;93958.19;;;1.54;82.48
12471;BME280;36499;46.484;13.832;2023-02-20T04:45:54;93954.16;;;1.52;82.81
12471;BME280;36499;46.484;13.832;2023-02-20T04:48:21;93951.31;;;1.45;83.59
12471;BME280;36499;46.484;13.832;2023-02-20T04:50:48;93955.38;;;1.48;83.42
12471;BME280;36499;46.484;13.832;2023-02-20T04:53:15;93955.38;;;1.38;83.13
12471;BME280;36499;46.484;13.832;2023-02-20T04:55:42;93968.34;;;1.27;83.54
12471;BME280;36499;46.484;13.832;2023-02-20T04:58:09;93963.06;;;1.57;81.94
12471;BME280;36499;46.484;13.832;2023-02-20T05:00:38;93970.91;;;1.65;81.68
12471;BME280;36499;46.484;13.832;2023-02-20T05:03:05;93961.72;;;1.63;80.82
12471;BME280;36499;46.484;13.832;2023-02-20T05:05:32;93964.56;;;1.50;80.56
12471;BME280;36499;46.484;13.832;2023-02-20T05:08:01;93964.84;;;1.47;81.43
12471;BME280;36499;46.484;13.832;2023-02-20T05:10:30;93967.69;;;1.44;80.83
12471;BME280;36499;46.484;13.832;2023-02-20T05:12:59;93971.19;;;1.33;81.20
12471;BME280;36499;46.484;13.832;2023-02-20T05:15:29;93985.63;;;1.15;82.97
12471;BME280;36499;46.484;13.832;2023-02-20T05:17:58;93984.97;;;1.42;82.80
12471;BME280;36499;46.484;13.832;2023-02-20T05:20:25;93988.22;;;1.44;81.32
12471;BME280;36499;46.484;13.832;2023-02-20T05:23:06;93993.50;;;1.42;81.00
12471;BME280;36499;46.484;13.832;2023-02-20T05:25:33;93990.53;;;1.47;81.18
12471;BME280;36499;46.484;13.832;2023-02-20T05:28:00;93996.31;;;1.49;80.72
12471;BME280;36499;46.484;13.832;2023-02-20T05:30:27;93997.84;;;1.52;80.60
12471;BME280;36499;46.484;13.832;2023-02-20T05:32:54;93998.22;;;1.47;81.05
12471;BME280;36499;46.484;13.832;2023-02-20T05:35:22;94005.00;;;1.48;80.61
12471;BME280;36499;46.484;13.832;2023-02-20T05:37:49;94002.81;;;1.53;80.96
12471;BME280;36499;46.484;13.832;2023-02-20T05:40:16;94000.25;;;1.43;81.99
12471;BME280;36499;46.484;13.832;2023-02-20T05:42:44;94004.16;;;1.38;82.37
12471;BME280;36499;46.484;13.832;2023-02-20T05:45:11;94005.41;;;1.43;82.31
12471;BME280;36499;46.484;13.832;2023-02-20T05:47:38;94002.56;;;1.47;82.24
12471;BME280;36499;46.484;13.832;2023-02-20T05:50:06;94006.59;;;1.49;82.12
12471;BME280;36499;46.484;13.832;2023-02-20T05:52:34;93998.38;;;1.55;82.64
12471;BME280;36499;46.484;13.832;2023-02-20T05:55:01;94003.78;;;1.62;81.72
12471;BME280;36499;46.484;13.832;2023-02-20T05:57:28;94006.22;;;1.63;81.04
12471;BME280;36499;46.484;13.832;2023-02-20T05:59:55;94002.81;;;1.53;81.36
12471;BME280;36499;46.484;13.832;2023-02-20T06:02:22;94007.56;;;1.48;80.86
12471;BME280;36499;46.484;13.832;2023-02-20T06:04:49;94003.22;;;1.39;81.97
12471;BME280;36499;46.484;13.832;2023-02-20T06:07:16;94016.88;;;1.30;82.13
12471;BME280;36499;46.484;13.832;2023-02-20T06:09:45;94017.56;;;1.41;81.82
12471;BME280;36499;46.484;13.832;2023-02-20T06:12:12;94028.53;;;1.43;80.94
12471;BME280;36499;46.484;13.832;2023-02-20T06:14:39;94018.53;;;1.40;81.04
12471;BME280;36499;46.484;13.832;2023-02-20T06:17:06;94023.09;;;1.47;81.34
12471;BME280;36499;46.484;13.832;2023-02-20T06:19:33;94025.94;;;1.43;81.14
12471;BME280;36499;46.484;13.832;2023-02-20T06:22:00;94020.53;;;1.56;80.65
12471;BME280;36499;46.484;13.832;2023-02-20T06:24:28;94022.16;;;1.67;80.86
12471;BME280;36499;46.484;13.832;2023-02-20T06:26:56;94020.25;;;1.78;81.09
12471;BME280;36499;46.484;13.832;2023-02-20T06:29:24;94020.66;;;1.83;81.10
12471;BME280;36499;46.484;13.832;2023-02-20T06:31:51;94021.19;;;1.68;82.60
12471;BME280;36499;46.484;13.832;2023-02-20T06:34:18;94018.38;;;1.61;81.97
12471;BME280;36499;46.484;13.832;2023-02-20T06:36:45;94012.94;;;1.83;80.70
12471;BME280;36499;46.484;13.832;2023-02-20T06:39:13;94015.78;;;1.90;80.31
12471;BME280;36499;46.484;13.832;2023-02-20T06:41:40;94011.56;;;1.99;79.04
12471;BME280;36499;46.484;13.832;2023-02-20T06:44:10;94015.63;;;1.91;79.31
12471;BME280;36499;46.484;13.832;2023-02-20T06:46:37;94019.59;;;1.86;79.55
12471;BME280;36499;46.484;13.832;2023-02-20T06:49:04;94006.28;;;1.90;80.06
12471;BME280;36499;46.484;13.832;2023-02-20T06:51:33;94016.84;;;1.87;80.13
12471;BME280;36499;46.484;13.832;2023-02-20T06:54:02;94015.78;;;1.90;80.46
12471;BME280;36499;46.484;13.832;2023-02-20T06:56:32;94022.28;;;1.94;80.64
12471;BME280;36499;46.484;13.832;2023-02-20T06:59:00;94020.34;;;2.15;80.78
12471;BME280;36499;46.484;13.832;2023-02-20T07:01:36;94022.31;;;2.31;79.92
12471;BME280;36499;46.484;13.832;2023-02-20T07:04:05;94024.03;;;2.40;79.51
12471;BME280;36499;46.484;13.832;2023-02-20T07:06:33;94023.22;;;2.49;79.64
12471;BME280;36499;46.484;13.832;2023-02-20T07:09:01;94019.09;;;2.66;79.40
12471;BME280;36499;46.484;13.832;2023-02-20T07:11:28;94017.94;;;2.78;79.51
12471;BME280;36499;46.484;13.832;2023-02-20T07:13:55;94013.31;;;2.81;79.00
12471;BME280;36499;46.484;13.832;2023-02-20T07:16:23;94017.91;;;3.05;77.74
12471;BME280;36499;46.484;13.832;2023-02-20T07:18:51;94024.28;;;3.11;78.41
12471;BME280;36499;46.484;13.832;2023-02-20T07:21:18;94013.75;;;3.22;77.73
12471;BME280;36499;46.484;13.832;2023-02-20T07:23:45;94014.88;;;3.37;77.40
12471;BME280;36499;46.484;13.832;2023-02-20T07:26:18;94015.09;;;3.44;77.21
12471;BME280;36499;46.484;13.832;2023-02-20T07:28:45;94011.81;;;3.69;76.97
12471;BME280;36499;46.484;13.832;2023-02-20T07:31:13;94011.84;;;3.77;75.76
12471;BME280;36499;46.484;13.832;2023-02-20T07:33:40;94007.72;;;3.84;75.74
12471;BME280;36499;46.484;13.832;2023-02-20T07:36:10;94008.25;;;3.88;74.46
12471;BME280;36499;46.484;13.832;2023-02-20T07:38:37;94013.09;;;3.91;74.89
12471;BME280;36499;46.484;13.832;2023-02-20T07:41:05;94000.66;;;4.12;73.47
12471;BME280;36499;46.484;13.832;2023-02-20T07:43:33;94004.94;;;4.21;73.31
12471;BME280;36499;46.484;13.832;2023-02-20T07:46:01;93998.25;;;4.36;73.01
12471;BME280;36499;46.484;13.832;2023-02-20T07:48:28;94002.88;;;4.58;72.45
12471;BME280;36499;46.484;13.832;2023-02-20T07:50:55;94001.38;;;4.81;71.60
12471;BME280;36499;46.484;13.832;2023-02-20T07:53:23;94005.97;;;4.62;71.29
12471;BME280;36499;46.484;13.832;2023-02-20T07:55:50;94000.75;;;4.88;70.64
12471;BME280;36499;46.484;13.832;2023-02-20T07:58:17;93998.84;;;4.98;71.01
12471;BME280;36499;46.484;13.832;2023-02-20T08:00:44;93998.72;;;5.07;70.69
12471;BME280;36499;46.484;13.832;2023-02-20T08:03:11;93995.72;;;5.28;69.26
12471;BME280;36499;46.484;13.832;2023-02-20T08:05:39;93985.56;;;5.43;68.13
12471;BME280;36499;46.484;13.832;2023-02-20T08:08:06;93977.97;;;5.49;67.82
12471;BME280;36499;46.484;13.832;2023-02-20T08:10:34;93974.41;;;5.74;67.61
12471;BME280;36499;46.484;13.832;2023-02-20T08:13:02;93969.59;;;5.88;67.54
12471;BME280;36499;46.484;13.832;2023-02-20T08:15:29;93962.81;;;5.95;67.18
12471;BME280;36499;46.484;13.832;2023-02-20T08:18:00;93963.13;;;6.00;66.32
12471;BME280;36499;46.484;13.832;2023-02-20T08:20:27;93963.47;;;5.97;65.86
12471;BME280;36499;46.484;13.832;2023-02-20T08:22:54;93962.13;;;6.17;65.17
12471;BME280;36499;46.484;13.832;2023-02-20T08:25:21;93953.88;;;6.21;64.85
12471;BME280;36499;46.484;13.832;2023-02-20T08:27:49;93954.69;;;6.30;64.88
12471;BME280;36499;46.484;13.832;2023-02-20T08:30:20;93951.53;;;6.51;64.28
12471;BME280;36499;46.484;13.832;2023-02-20T08:32:49;93957.09;;;6.79;63.90
12471;BME280;36499;46.484;13.832;2023-02-20T08:35:16;93953.69;;;6.86;62.82
12471;BME280;36499;46.484;13.832;2023-02-20T08:37:44;93955.44;;;6.94;62.20
12471;BME280;36499;46.484;13.832;2023-02-20T08:40:12;93950.34;;;7.31;64.19
12471;BME280;36499;46.484;13.832;2023-02-20T08:42:39;93950.09;;;7.49;61.73
12471;BME280;36499;46.484;13.832;2023-02-20T08:45:09;93954.03;;;7.45;60.96
12471;BME280;36499;46.484;13.832;2023-02-20T08:47:36;93950.44;;;7.68;60.83
12471;BME280;36499;46.484;13.832;2023-02-20T08:50:04;93940.38;;;7.88;60.00
12471;BME280;36499;46.484;13.832;2023-02-20T08:52:31;93937.63;;;7.90;59.75
12471;BME280;36499;46.484;13.832;2023-02-20T08:54:58;93940.94;;;7.84;59.30
12471;BME280;36499;46.484;13.832;2023-02-20T08:57:26;93944.09;;;8.08;59.06
12471;BME280;36499;46.484;13.832;2023-02-20T08:59:53;93941.31;;;8.33;58.59
12471;BME280;36499;46.484;13.832;2023-02-20T09:02:23;93936.56;;;8.51;61.30
12471;BME280;36499;46.484;13.832;2023-02-20T09:04:53;93937.56;;;8.64;61.88
12471;BME280;36499;46.484;13.832;2023-02-20T09:07:21;93933.88;;;8.88;62.08
12471;BME280;36499;46.484;13.832;2023-02-20T09:09:49;93931.78;;;9.13;60.47
12471;BME280;36499;46.484;13.832;2023-02-20T09:12:17;93923.50;;;9.24;56.82
12471;BME280;36499;46.484;13.832;2023-02-20T09:14:44;93932.28;;;9.23;55.77
12471;BME280;36499;46.484;13.832;2023-02-20T09:17:13;93931.44;;;9.37;55.79
12471;BME280;36499;46.484;13.832;2023-02-20T09:19:41;93923.34;;;9.47;58.37
12471;BME280;36499;46.484;13.832;2023-02-20T09:22:08;93926.97;;;9.52;56.90
12471;BME280;36499;46.484;13.832;2023-02-20T09:24:35;93922.78;;;9.73;59.19
12471;BME280;36499;46.484;13.832;2023-02-20T09:27:03;93919.09;;;9.88;59.89
12471;BME280;36499;46.484;13.832;2023-02-20T09:29:31;93926.97;;;9.95;57.05
12471;BME280;36499;46.484;13.832;2023-02-20T09:31:58;93921.94;;;10.15;54.25
12471;BME280;36499;46.484;13.832;2023-02-20T09:34:25;93920.47;;;10.12;51.71
12471;BME280;36499;46.484;13.832;2023-02-20T09:36:53;93922.00;;;10.00;51.41
12471;BME280;36499;46.484;13.832;2023-02-20T09:39:21;93914.56;;;9.97;50.60
12471;BME280;36499;46.484;13.832;2023-02-20T09:42:14;93916.41;;;10.03;50.20
12471;BME280;36499;46.484;13.832;2023-02-20T09:44:58;93910.66;;;10.07;50.16
12471;BME280;36499;46.484;13.832;2023-02-20T09:47:41;93904.38;;;10.23;49.90
12471;BME280;36499;46.484;13.832;2023-02-20T09:50:15;93904.44;;;10.36;49.71
12471;BME280;36499;46.484;13.832;2023-02-20T09:52:56;93902.31;;;10.46;49.35
12471;BME280;36499;46.484;13.832;2023-02-20T09:55:34;93902.47;;;10.73;49.19
12471;BME280;36499;46.484;13.832;2023-02-20T09:58:04;93889.78;;;10.70;48.71
12471;BME280;36499;46.484;13.832;2023-02-20T10:00:35;93897.88;;;10.81;48.58
12471;BME280;36499;46.484;13.832;2023-02-20T10:03:18;93892.50;;;10.89;49.18
12471;BME280;36499;46.484;13.832;2023-02-20T10:05:46;93892.34;;;11.04;48.39
12471;BME280;36499;46.484;13.832;2023-02-20T10:08:19;93889.19;;;11.15;48.29
12471;BME280;36499;46.484;13.832;2023-02-20T10:10:50;93884.81;;;11.22;47.11
12471;BME280;36499;46.484;13.832;2023-02-20T10:13:55;93880.00;;;11.32;46.21
12471;BME280;36499;46.484;13.832;2023-02-20T10:16:36;93877.03;;;11.62;46.44
12471;BME280;36499;46.484;13.832;2023-02-20T10:19:19;93878.91;;;11.74;45.48
12471;BME280;36499;46.484;13.832;2023-02-20T10:22:01;93879.31;;;11.78;45.52
12471;BME280;36499;46.484;13.832;2023-02-20T10:24:49;93870.06;;;11.82;45.41
12471;BME280;36499;46.484;13.832;2023-02-20T10:27:30;93872.69;;;11.82;44.71
12471;BME280;36499;46.484;13.832;2023-02-20T10:30:00;93863.41;;;11.99;44.67
12471;BME280;36499;46.484;13.832;2023-02-20T10:32:39;93857.59;;;11.90;45.14
12471;BME280;36499;46.484;13.832;2023-02-20T10:35:13;93856.38;;;11.93;44.43
12471;BME280;36499;46.484;13.832;2023-02-20T10:37:47;93851.56;;;12.16;44.30
12471;BME280;36499;46.484;13.832;2023-02-20T10:40:22;93846.31;;;12.23;43.95
12471;BME280;36499;46.484;13.832;2023-02-20T10:42:59;93835.63;;;12.31;43.74
12471;BME280;36499;46.484;13.832;2023-02-20T10:45:38;93834.63;;;12.32;43.15
12471;BME280;36499;46.484;13.832;2023-02-20T10:48:10;93824.94;;;12.45;42.77
12471;BME280;36499;46.484;13.832;2023-02-20T10:50:47;93812.78;;;12.71;43.03
12471;BME280;36499;46.484;13.832;2023-02-20T10:53:25;93799.38;;;12.98;41.95
12471;BME280;36499;46.484;13.832;2023-02-20T10:56:06;93802.75;;;13.12;41.18
12471;BME280;36499;46.484;13.832;2023-02-20T10:58:39;93798.31;;;13.13;41.01
12471;BME280;36499;46.484;13.832;2023-02-20T11:01:12;93792.69;;;13.40;40.54
12471;BME280;36499;46.484;13.832;2023-02-20T11:03:46;93791.81;;;13.53;40.06
12471;BME280;36499;46.484;13.832;2023-02-20T11:06:22;93788.38;;;13.53;39.70
12471;BME280;36499;46.484;13.832;2023-02-20T11:08:51;93780.00;;;13.69;39.49
12471;BME280;36499;46.484;13.832;2023-02-20T11:11:32;93767.03;;;13.74;39.28
12471;BME280;36499;46.484;13.832;2023-02-20T11:14:09;93767.09;;;13.92;39.03
12471;BME280;36499;46.484;13.832;2023-02-20T11:16:44;93757.19;;;13.94;39.27
12471;BME280;36499;46.484;13.832;2023-02-20T11:19:20;93759.09;;;14.05;38.95
12471;BME280;36499;46.484;13.832;2023-02-20T11:21:50;93757.47;;;14.04;38.78
12471;BME280;36499;46.484;13.832;2023-02-20T11:24:31;93749.78;;;14.27;38.16
12471;BME280;36499;46.484;13.832;2023-02-20T11:27:08;93748.66;;;14.60;37.87
12471;BME280;36499;46.484;13.832;2023-02-20T11:29:47;93729.38;;;14.66;37.24
12471;BME280;36499;46.484;13.832;2023-02-20T11:32:34;93722.06;;;14.86;36.78
12471;BME280;36499;46.484;13.832;2023-02-20T11:35:24;93718.28;;;14.82;36.98
12471;BME280;36499;46.484;13.832;2023-02-20T11:38:31;93721.75;;;14.64;36.77
12471;BME280;36499;46.484;13.832;2023-02-20T11:41:20;93712.22;;;14.81;37.02
12471;BME280;36499;46.484;13.832;2023-02-20T11:44:17;93713.38;;;14.85;37.31
12471;BME280;36499;46.484;13.832;2023-02-20T11:46:45;93713.72;;;14.89;36.78
12471;BME280;36499;46.484;13.832;2023-02-20T11:49:25;93702.25;;;15.02;36.08
12471;BME280;36499;46.484;13.832;2023-02-20T11:52:07;93693.88;;;14.93;36.63
12471;BME280;36499;46.484;13.832;2023-02-20T11:54:36;93687.47;;;14.89;36.45
12471;BME280;36499;46.484;13.832;2023-02-20T11:57:17;93684.97;;;14.82;36.95
12471;BME280;36499;46.484;13.832;2023-02-20T11:59:48;93687.22;;;14.79;36.75
12471;BME280;36499;46.484;13.832;2023-02-20T12:02:26;93675.69;;;14.80;36.62
12471;BME280;36499;46.484;13.832;2023-02-20T12:05:15;93680.06;;;14.86;36.62
12471;BME280;36499;46.484;13.832;2023-02-20T12:07:57;93671.03;;;14.82;36.42
12471;BME280;36499;46.484;13.832;2023-02-20T12:10:34;93669.31;;;14.76;36.73
12471;BME280;36499;46.484;13.832;2023-02-20T12:13:04;93662.81;;;14.78;36.62
12471;BME280;36499;46.484;13.832;2023-02-20T12:15:33;93668.69;;;15.04;36.84
12471;BME280;36499;46.484;13.832;2023-02-20T12:18:32;93665.69;;;15.00;36.57
12471;BME280;36499;46.484;13.832;2023-02-20T12:21:17;93664.22;;;15.04;35.66
12471;BME280;36499;46.484;13.832;2023-02-20T12:24:02;93664.38;;;15.21;35.10
12471;BME280;36499;46.484;13.832;2023-02-20T12:26:45;93660.19;;;15.43;34.31
12471;BME280;36499;46.484;13.832;2023-02-20T12:29:31;93659.41;;;15.66;37.08
12471;BME280;36499;46.484;13.832;2023-02-20T12:32:21;93646.72;;;15.86;38.19
12471;BME280;36499;46.484;13.832;2023-02-20T12:35:29;93647.59;;;16.03;36.46
12471;BME280;36499;46.484;13.832;2023-02-20T12:38:22;93646.00;;;16.02;36.06
12471;BME280;36499;46.484;13.832;2023-02-20T12:41:28;93643.63;;;15.89;35.74
12471;BME280;36499;46.484;13.832;2023-02-20T12:44:22;93645.44;;;15.42;36.96
12471;BME280;36499;46.484;13.832;2023-02-20T12:47:03;93651.19;;;15.51;37.69
12471;BME280;36499;46.484;13.832;2023-02-20T12:50:02;93654.03;;;15.61;37.98
12471;BME280;36499;46.484;13.832;2023-02-20T12:52:57;93655.97;;;15.54;37.75
12471;BME280;36499;46.484;13.832;2023-02-20T12:55:37;93654.03;;;15.49;37.53
12471;BME280;36499;46.484;13.832;2023-02-20T12:58:32;93651.75;;;15.76;38.16
12471;BME280;36499;46.484;13.832;2023-02-20T13:01:06;93657.00;;;15.76;38.33
12471;BME280;36499;46.484;13.832;2023-02-20T13:03:48;93642.38;;;15.80;37.53
12471;BME280;36499;46.484;13.832;2023-02-20T13:06:25;93634.34;;;15.87;37.98
12471;BME280;36499;46.484;13.832;2023-02-20T13:09:05;93632.31;;;15.89;37.09
12471;BME280;36499;46.484;13.832;2023-02-20T13:11:42;93646.47;;;15.76;37.36
12471;BME280;36499;46.484;13.832;2023-02-20T13:14:27;93633.34;;;15.76;37.55
12471;BME280;36499;46.484;13.832;2023-02-20T13:17:08;93638.84;;;15.51;37.75
12471;BME280;36499;46.484;13.832;2023-02-20T13:19:42;93635.53;;;15.56;38.62
12471;BME280;36499;46.484;13.832;2023-02-20T13:22:14;93640.19;;;15.42;38.51
12471;BME280;36499;46.484;13.832;2023-02-20T13:24:42;93633.22;;;15.36;38.56
12471;BME280;36499;46.484;13.832;2023-02-20T13:27:27;93627.50;;;15.39;39.11
12471;BME280;36499;46.484;13.832;2023-02-20T13:29:59;93627.97;;;15.24;39.38
12471;BME280;36499;46.484;13.832;2023-02-20T13:32:30;93621.31;;;15.33;39.14
12471;BME280;36499;46.484;13.832;2023-02-20T13:35:46;93623.03;;;15.28;39.36